sensor_id;sensor_type;location;lat;lon;timestamp;P1;durP1;ratioP1;P2;durP2;ratioP2
15635;SDS011;7917;50.818;6.972;2022-08-25T00:01:07;4.35;;;2.97;;
15635;SDS011;7917;50.818;6.972;2022-08-25T00:03:36;5.50;;;2.47;;
15635;SDS011;7917;50.818;6.972;2022-08-25T00:06:04;5.40;;;2.72;;
15635;SDS011;7917;50.818;6.972;2022-08-25T00:08:32;4.60;;;2.85;;
15635;SDS011;7917;50.818;6.972;2022-08-25T00:11:02;3.72;;;2.70;;
15635;SDS011;7917;50.818;6.972;2022-08-25T00:13:30;4.47;;;2.75;;
15635;SDS011;7917;50.818;6.972;2022-08-25T00:15:59;4.28;;;2.85;;
15635;SDS011;7917;50.818;6.972;2022-08-25T00:18:28;2.97;;;2.38;;
15635;SDS011;7917;50.818;6.972;2022-08-25T00:20:55;7.55;;;2.80;;
15635;SDS011;7917;50.818;6.972;2022-08-25T00:23:22;5.20;;;2.83;;
15635;SDS011;7917;50.818;6.972;2022-08-25T00:25:49;7.60;;;3.17;;
15635;SDS011;7917;50.818;6.972;2022-08-25T00:28:17;5.68;;;3.05;;
15635;SDS011;7917;50.818;6.972;2022-08-25T00:30:45;3.95;;;2.55;;
15635;SDS011;7917;50.818;6.972;2022-08-25T00:33:15;3.80;;;2.58;;
15635;SDS011;7917;50.818;6.972;2022-08-25T00:35:43;3.53;;;2.80;;
15635;SDS011;7917;50.818;6.972;2022-08-25T00:38:11;5.80;;;2.75;;
15635;SDS011;7917;50.818;6.972;2022-08-25T00:40:40;3.63;;;2.80;;
15635;SDS011;7917;50.818;6.972;2022-08-25T00:43:09;3.15;;;2.55;;
15635;SDS011;7917;50.818;6.972;2022-08-25T00:45:37;2.95;;;2.65;;
15635;SDS011;7917;50.818;6.972;2022-08-25T00:48:05;3.75;;;2.58;;
15635;SDS011;7917;50.818;6.972;2022-08-25T00:50:34;2.83;;;2.63;;
15635;SDS011;7917;50.818;6.972;2022-08-25T00:53:02;8.55;;;3.15;;
15635;SDS011;7917;50.818;6.972;2022-08-25T00:55:32;3.47;;;2.75;;
15635;SDS011;7917;50.818;6.972;2022-08-25T00:58:04;4.90;;;3.65;;
15635;SDS011;7917;50.818;6.972;2022-08-25T01:00:39;7.38;;;4.00;;
15635;SDS011;7917;50.818;6.972;2022-08-25T01:03:08;7.85;;;3.80;;
15635;SDS011;7917;50.818;6.972;2022-08-25T01:05:38;4.80;;;3.45;;
15635;SDS011;7917;50.818;6.972;2022-08-25T01:08:09;5.32;;;3.80;;
15635;SDS011;7917;50.818;6.972;2022-08-25T01:10:38;5.03;;;3.97;;
15635;SDS011;7917;50.818;6.972;2022-08-25T01:13:11;4.45;;;4.03;;
15635;SDS011;7917;50.818;6.972;2022-08-25T01:15:42;5.97;;;3.97;;
15635;SDS011;7917;50.818;6.972;2022-08-25T01:18:09;6.65;;;4.30;;
15635;SDS011;7917;50.818;6.972;2022-08-25T01:20:38;4.70;;;4.13;;
15635;SDS011;7917;50.818;6.972;2022-08-25T01:23:07;5.45;;;4.30;;
15635;SDS011;7917;50.818;6.972;2022-08-25T01:25:38;4.97;;;3.97;;
15635;SDS011;7917;50.818;6.972;2022-08-25T01:28:14;7.18;;;4.28;;
15635;SDS011;7917;50.818;6.972;2022-08-25T01:30:42;5.95;;;4.13;;
15635;SDS011;7917;50.818;6.972;2022-08-25T01:33:10;6.45;;;4.10;;
15635;SDS011;7917;50.818;6.972;2022-08-25T01:35:38;6.25;;;4.90;;
15635;SDS011;7917;50.818;6.972;2022-08-25T01:38:08;6.20;;;4.40;;
15635;SDS011;7917;50.818;6.972;2022-08-25T01:40:36;5.35;;;4.85;;
15635;SDS011;7917;50.818;6.972;2022-08-25T01:43:06;5.78;;;4.30;;
15635;SDS011;7917;50.818;6.972;2022-08-25T01:45:46;6.35;;;4.38;;
15635;SDS011;7917;50.818;6.972;2022-08-25T01:48:15;6.90;;;4.60;;
15635;SDS011;7917;50.818;6.972;2022-08-25T01:50:44;8.52;;;4.50;;
15635;SDS011;7917;50.818;6.972;2022-08-25T01:53:17;7.63;;;4.93;;
15635;SDS011;7917;50.818;6.972;2022-08-25T01:55:47;6.10;;;4.53;;
15635;SDS011;7917;50.818;6.972;2022-08-25T01:58:19;6.30;;;5.05;;
15635;SDS011;7917;50.818;6.972;2022-08-25T02:00:48;7.43;;;4.88;;
15635;SDS011;7917;50.818;6.972;2022-08-25T02:03:18;6.90;;;4.47;;
15635;SDS011;7917;50.818;6.972;2022-08-25T02:05:46;9.38;;;5.20;;
15635;SDS011;7917;50.818;6.972;2022-08-25T02:08:14;5.63;;;4.47;;
15635;SDS011;7917;50.818;6.972;2022-08-25T02:10:42;5.30;;;4.70;;
15635;SDS011;7917;50.818;6.972;2022-08-25T02:13:10;8.73;;;4.97;;
15635;SDS011;7917;50.818;6.972;2022-08-25T02:15:39;9.82;;;4.70;;
15635;SDS011;7917;50.818;6.972;2022-08-25T02:18:07;6.57;;;4.97;;
15635;SDS011;7917;50.818;6.972;2022-08-25T02:20:35;6.65;;;5.18;;
15635;SDS011;7917;50.818;6.972;2022-08-25T02:23:02;7.05;;;5.13;;
15635;SDS011;7917;50.818;6.972;2022-08-25T02:25:32;7.43;;;5.45;;
15635;SDS011;7917;50.818;6.972;2022-08-25T02:27:59;5.47;;;4.63;;
15635;SDS011;7917;50.818;6.972;2022-08-25T02:30:26;6.15;;;4.78;;
15635;SDS011;7917;50.818;6.972;2022-08-25T02:32:54;10.25;;;5.47;;
15635;SDS011;7917;50.818;6.972;2022-08-25T02:35:21;8.77;;;5.10;;
15635;SDS011;7917;50.818;6.972;2022-08-25T02:37:49;7.03;;;5.22;;
15635;SDS011;7917;50.818;6.972;2022-08-25T02:40:17;7.95;;;5.05;;
15635;SDS011;7917;50.818;6.972;2022-08-25T02:42:48;6.05;;;5.07;;
15635;SDS011;7917;50.818;6.972;2022-08-25T02:45:17;7.30;;;4.90;;
15635;SDS011;7917;50.818;6.972;2022-08-25T02:47:47;12.02;;;5.25;;
15635;SDS011;7917;50.818;6.972;2022-08-25T02:50:15;6.80;;;4.70;;
15635;SDS011;7917;50.818;6.972;2022-08-25T02:52:42;6.40;;;4.97;;
15635;SDS011;7917;50.818;6.972;2022-08-25T02:55:10;6.78;;;5.18;;
15635;SDS011;7917;50.818;6.972;2022-08-25T02:57:39;5.97;;;5.38;;
15635;SDS011;7917;50.818;6.972;2022-08-25T03:00:09;8.93;;;5.43;;
15635;SDS011;7917;50.818;6.972;2022-08-25T03:02:38;6.85;;;4.95;;
15635;SDS011;7917;50.818;6.972;2022-08-25T03:05:06;8.18;;;4.47;;
15635;SDS011;7917;50.818;6.972;2022-08-25T03:07:34;8.23;;;4.80;;
15635;SDS011;7917;50.818;6.972;2022-08-25T03:10:05;6.53;;;4.28;;
15635;SDS011;7917;50.818;6.972;2022-08-25T03:12:34;5.88;;;4.18;;
15635;SDS011;7917;50.818;6.972;2022-08-25T03:15:01;7.22;;;3.65;;
15635;SDS011;7917;50.818;6.972;2022-08-25T03:17:31;7.78;;;3.47;;
15635;SDS011;7917;50.818;6.972;2022-08-25T03:19:58;9.30;;;3.97;;
15635;SDS011;7917;50.818;6.972;2022-08-25T03:22:39;8.70;;;4.00;;
15635;SDS011;7917;50.818;6.972;2022-08-25T03:25:07;6.10;;;3.42;;
15635;SDS011;7917;50.818;6.972;2022-08-25T03:28:00;6.13;;;3.67;;
15635;SDS011;7917;50.818;6.972;2022-08-25T03:30:28;6.65;;;3.85;;
15635;SDS011;7917;50.818;6.972;2022-08-25T03:32:57;4.25;;;3.55;;
15635;SDS011;7917;50.818;6.972;2022-08-25T03:35:24;4.93;;;3.65;;
15635;SDS011;7917;50.818;6.972;2022-08-25T03:37:53;4.82;;;3.92;;
15635;SDS011;7917;50.818;6.972;2022-08-25T03:40:21;4.20;;;3.80;;
15635;SDS011;7917;50.818;6.972;2022-08-25T03:42:49;7.25;;;3.97;;
15635;SDS011;7917;50.818;6.972;2022-08-25T03:45:16;6.10;;;3.95;;
15635;SDS011;7917;50.818;6.972;2022-08-25T03:47:45;8.73;;;4.20;;
15635;SDS011;7917;50.818;6.972;2022-08-25T03:50:15;7.43;;;4.00;;
15635;SDS011;7917;50.818;6.972;2022-08-25T03:52:44;8.85;;;4.28;;
15635;SDS011;7917;50.818;6.972;2022-08-25T03:55:18;6.20;;;3.88;;
15635;SDS011;7917;50.818;6.972;2022-08-25T03:57:47;4.75;;;4.03;;
15635;SDS011;7917;50.818;6.972;2022-08-25T04:00:14;6.10;;;4.03;;
15635;SDS011;7917;50.818;6.972;2022-08-25T04:02:42;5.72;;;4.43;;
15635;SDS011;7917;50.818;6.972;2022-08-25T04:05:09;5.30;;;4.43;;
15635;SDS011;7917;50.818;6.972;2022-08-25T04:07:38;7.50;;;4.22;;
15635;SDS011;7917;50.818;6.972;2022-08-25T04:10:06;15.23;;;5.75;;
15635;SDS011;7917;50.818;6.972;2022-08-25T04:12:35;7.53;;;3.75;;
15635;SDS011;7917;50.818;6.972;2022-08-25T04:15:03;9.02;;;4.03;;
15635;SDS011;7917;50.818;6.972;2022-08-25T04:17:31;7.13;;;3.92;;
15635;SDS011;7917;50.818;6.972;2022-08-25T04:20:00;6.00;;;3.28;;
15635;SDS011;7917;50.818;6.972;2022-08-25T04:22:28;5.93;;;3.58;;
15635;SDS011;7917;50.818;6.972;2022-08-25T04:24:58;5.53;;;3.45;;
15635;SDS011;7917;50.818;6.972;2022-08-25T04:27:25;8.13;;;3.97;;
15635;SDS011;7917;50.818;6.972;2022-08-25T04:29:53;6.93;;;3.55;;
15635;SDS011;7917;50.818;6.972;2022-08-25T04:32:20;7.65;;;4.43;;
15635;SDS011;7917;50.818;6.972;2022-08-25T04:34:47;3.83;;;3.45;;
15635;SDS011;7917;50.818;6.972;2022-08-25T04:37:15;4.63;;;3.70;;
15635;SDS011;7917;50.818;6.972;2022-08-25T04:39:42;9.68;;;4.00;;
15635;SDS011;7917;50.818;6.972;2022-08-25T04:42:11;8.27;;;3.78;;
15635;SDS011;7917;50.818;6.972;2022-08-25T04:44:38;9.45;;;3.85;;
15635;SDS011;7917;50.818;6.972;2022-08-25T04:47:05;5.55;;;3.70;;
15635;SDS011;7917;50.818;6.972;2022-08-25T04:49:34;5.65;;;3.70;;
15635;SDS011;7917;50.818;6.972;2022-08-25T04:52:02;5.97;;;3.75;;
15635;SDS011;7917;50.818;6.972;2022-08-25T04:54:29;8.82;;;3.90;;
15635;SDS011;7917;50.818;6.972;2022-08-25T04:56:56;6.05;;;3.90;;
15635;SDS011;7917;50.818;6.972;2022-08-25T04:59:25;6.15;;;4.32;;
15635;SDS011;7917;50.818;6.972;2022-08-25T05:01:53;7.93;;;4.00;;
15635;SDS011;7917;50.818;6.972;2022-08-25T05:04:21;7.68;;;3.65;;
15635;SDS011;7917;50.818;6.972;2022-08-25T05:06:49;7.10;;;3.45;;
15635;SDS011;7917;50.818;6.972;2022-08-25T05:09:16;6.05;;;3.80;;
15635;SDS011;7917;50.818;6.972;2022-08-25T05:11:45;6.63;;;3.22;;
15635;SDS011;7917;50.818;6.972;2022-08-25T05:14:15;7.32;;;3.70;;
15635;SDS011;7917;50.818;6.972;2022-08-25T05:16:48;6.68;;;3.28;;
15635;SDS011;7917;50.818;6.972;2022-08-25T05:19:17;6.72;;;3.90;;
15635;SDS011;7917;50.818;6.972;2022-08-25T05:21:45;6.93;;;3.25;;
15635;SDS011;7917;50.818;6.972;2022-08-25T05:24:12;4.80;;;3.88;;
15635;SDS011;7917;50.818;6.972;2022-08-25T05:26:40;6.93;;;3.67;;
15635;SDS011;7917;50.818;6.972;2022-08-25T05:29:07;10.00;;;4.18;;
15635;SDS011;7917;50.818;6.972;2022-08-25T05:31:35;6.07;;;3.78;;
15635;SDS011;7917;50.818;6.972;2022-08-25T05:34:05;7.20;;;3.72;;
15635;SDS011;7917;50.818;6.972;2022-08-25T05:36:33;9.25;;;4.13;;
15635;SDS011;7917;50.818;6.972;2022-08-25T05:39:02;7.43;;;3.80;;
15635;SDS011;7917;50.818;6.972;2022-08-25T05:41:29;7.55;;;4.05;;
15635;SDS011;7917;50.818;6.972;2022-08-25T05:43:57;7.88;;;3.67;;
15635;SDS011;7917;50.818;6.972;2022-08-25T05:46:25;9.40;;;3.85;;
15635;SDS011;7917;50.818;6.972;2022-08-25T05:48:53;11.45;;;4.30;;
15635;SDS011;7917;50.818;6.972;2022-08-25T05:51:22;9.85;;;5.18;;
15635;SDS011;7917;50.818;6.972;2022-08-25T05:53:49;7.47;;;3.80;;
15635;SDS011;7917;50.818;6.972;2022-08-25T05:56:17;8.98;;;4.43;;
15635;SDS011;7917;50.818;6.972;2022-08-25T05:58:46;5.40;;;3.95;;
15635;SDS011;7917;50.818;6.972;2022-08-25T06:01:21;10.95;;;4.05;;
15635;SDS011;7917;50.818;6.972;2022-08-25T06:04:08;12.55;;;4.15;;
15635;SDS011;7917;50.818;6.972;2022-08-25T06:06:37;11.23;;;4.50;;
15635;SDS011;7917;50.818;6.972;2022-08-25T06:09:04;7.65;;;3.97;;
15635;SDS011;7917;50.818;6.972;2022-08-25T06:11:33;7.85;;;3.40;;
15635;SDS011;7917;50.818;6.972;2022-08-25T06:14:01;8.45;;;3.45;;
15635;SDS011;7917;50.818;6.972;2022-08-25T06:16:29;11.05;;;3.80;;
15635;SDS011;7917;50.818;6.972;2022-08-25T06:18:57;10.30;;;3.60;;
15635;SDS011;7917;50.818;6.972;2022-08-25T06:21:25;8.27;;;4.10;;
15635;SDS011;7917;50.818;6.972;2022-08-25T06:23:54;6.32;;;3.88;;
15635;SDS011;7917;50.818;6.972;2022-08-25T06:26:22;7.35;;;3.70;;
15635;SDS011;7917;50.818;6.972;2022-08-25T06:28:49;8.80;;;3.97;;
15635;SDS011;7917;50.818;6.972;2022-08-25T06:31:17;4.82;;;3.10;;
15635;SDS011;7917;50.818;6.972;2022-08-25T06:33:46;7.40;;;3.20;;
15635;SDS011;7917;50.818;6.972;2022-08-25T06:36:13;8.40;;;3.50;;
15635;SDS011;7917;50.818;6.972;2022-08-25T06:38:41;12.43;;;3.67;;
15635;SDS011;7917;50.818;6.972;2022-08-25T06:41:10;7.35;;;3.33;;
15635;SDS011;7917;50.818;6.972;2022-08-25T06:43:40;14.80;;;3.78;;
15635;SDS011;7917;50.818;6.972;2022-08-25T06:46:08;14.23;;;3.30;;
15635;SDS011;7917;50.818;6.972;2022-08-25T06:48:37;5.13;;;2.92;;
15635;SDS011;7917;50.818;6.972;2022-08-25T06:51:05;10.20;;;3.58;;
15635;SDS011;7917;50.818;6.972;2022-08-25T06:53:34;8.57;;;4.18;;
15635;SDS011;7917;50.818;6.972;2022-08-25T06:56:02;6.25;;;3.25;;
15635;SDS011;7917;50.818;6.972;2022-08-25T06:58:34;5.30;;;3.30;;
15635;SDS011;7917;50.818;6.972;2022-08-25T07:01:08;4.80;;;3.60;;
15635;SDS011;7917;50.818;6.972;2022-08-25T07:03:37;6.07;;;3.70;;
15635;SDS011;7917;50.818;6.972;2022-08-25T07:06:05;5.22;;;3.20;;
15635;SDS011;7917;50.818;6.972;2022-08-25T07:08:32;7.05;;;3.10;;
15635;SDS011;7917;50.818;6.972;2022-08-25T07:11:03;3.38;;;3.05;;
15635;SDS011;7917;50.818;6.972;2022-08-25T07:13:31;7.38;;;3.55;;
15635;SDS011;7917;50.818;6.972;2022-08-25T07:15:59;6.60;;;3.47;;
15635;SDS011;7917;50.818;6.972;2022-08-25T07:18:27;6.65;;;3.63;;
15635;SDS011;7917;50.818;6.972;2022-08-25T07:20:54;7.90;;;3.78;;
15635;SDS011;7917;50.818;6.972;2022-08-25T07:23:22;7.97;;;3.33;;
15635;SDS011;7917;50.818;6.972;2022-08-25T07:25:51;6.30;;;3.50;;
15635;SDS011;7917;50.818;6.972;2022-08-25T07:28:32;5.07;;;3.67;;
15635;SDS011;7917;50.818;6.972;2022-08-25T07:31:01;7.60;;;3.53;;
15635;SDS011;7917;50.818;6.972;2022-08-25T07:33:28;5.28;;;3.63;;
15635;SDS011;7917;50.818;6.972;2022-08-25T07:35:55;13.18;;;4.35;;
15635;SDS011;7917;50.818;6.972;2022-08-25T07:38:21;7.22;;;3.58;;
15635;SDS011;7917;50.818;6.972;2022-08-25T07:40:49;6.25;;;3.47;;
15635;SDS011;7917;50.818;6.972;2022-08-25T07:43:22;6.32;;;3.63;;
15635;SDS011;7917;50.818;6.972;2022-08-25T07:45:49;6.32;;;3.85;;
15635;SDS011;7917;50.818;6.972;2022-08-25T07:48:17;7.47;;;3.88;;
15635;SDS011;7917;50.818;6.972;2022-08-25T07:50:45;5.38;;;3.40;;
15635;SDS011;7917;50.818;6.972;2022-08-25T07:53:14;3.95;;;3.42;;
15635;SDS011;7917;50.818;6.972;2022-08-25T07:55:42;9.75;;;4.00;;
15635;SDS011;7917;50.818;6.972;2022-08-25T07:58:09;6.68;;;3.60;;
15635;SDS011;7917;50.818;6.972;2022-08-25T08:00:37;6.60;;;3.85;;
15635;SDS011;7917;50.818;6.972;2022-08-25T08:03:06;5.18;;;3.63;;
15635;SDS011;7917;50.818;6.972;2022-08-25T08:05:38;5.40;;;3.58;;
15635;SDS011;7917;50.818;6.972;2022-08-25T08:08:06;5.95;;;3.58;;
15635;SDS011;7917;50.818;6.972;2022-08-25T08:10:36;7.32;;;3.78;;
15635;SDS011;7917;50.818;6.972;2022-08-25T08:13:05;7.05;;;4.43;;
15635;SDS011;7917;50.818;6.972;2022-08-25T08:15:34;8.20;;;3.65;;
15635;SDS011;7917;50.818;6.972;2022-08-25T08:18:01;5.18;;;4.03;;
15635;SDS011;7917;50.818;6.972;2022-08-25T08:20:32;7.93;;;4.28;;
15635;SDS011;7917;50.818;6.972;2022-08-25T08:23:01;6.38;;;3.97;;
15635;SDS011;7917;50.818;6.972;2022-08-25T08:25:29;5.95;;;3.78;;
15635;SDS011;7917;50.818;6.972;2022-08-25T08:27:57;5.55;;;4.10;;
15635;SDS011;7917;50.818;6.972;2022-08-25T08:30:24;6.50;;;4.10;;
15635;SDS011;7917;50.818;6.972;2022-08-25T08:32:51;6.47;;;3.97;;
15635;SDS011;7917;50.818;6.972;2022-08-25T08:35:26;4.75;;;3.95;;
15635;SDS011;7917;50.818;6.972;2022-08-25T08:37:55;7.03;;;3.72;;
15635;SDS011;7917;50.818;6.972;2022-08-25T08:40:24;9.13;;;4.10;;
15635;SDS011;7917;50.818;6.972;2022-08-25T08:42:55;5.93;;;4.50;;
15635;SDS011;7917;50.818;6.972;2022-08-25T08:45:32;4.50;;;3.90;;
15635;SDS011;7917;50.818;6.972;2022-08-25T08:48:13;7.90;;;4.00;;
15635;SDS011;7917;50.818;6.972;2022-08-25T08:50:55;6.03;;;3.45;;
15635;SDS011;7917;50.818;6.972;2022-08-25T08:53:31;6.90;;;3.95;;
15635;SDS011;7917;50.818;6.972;2022-08-25T08:56:08;8.93;;;4.13;;
15635;SDS011;7917;50.818;6.972;2022-08-25T08:58:39;5.63;;;3.42;;
15635;SDS011;7917;50.818;6.972;2022-08-25T09:01:09;7.57;;;4.57;;
15635;SDS011;7917;50.818;6.972;2022-08-25T09:03:43;9.43;;;4.40;;
15635;SDS011;7917;50.818;6.972;2022-08-25T09:06:17;4.40;;;3.88;;
15635;SDS011;7917;50.818;6.972;2022-08-25T09:08:49;4.63;;;3.53;;
15635;SDS011;7917;50.818;6.972;2022-08-25T09:11:22;8.02;;;3.55;;
15635;SDS011;7917;50.818;6.972;2022-08-25T09:14:04;7.68;;;3.17;;
15635;SDS011;7917;50.818;6.972;2022-08-25T09:16:44;5.50;;;3.95;;
15635;SDS011;7917;50.818;6.972;2022-08-25T09:19:27;6.82;;;3.90;;
15635;SDS011;7917;50.818;6.972;2022-08-25T09:22:13;6.22;;;4.07;;
15635;SDS011;7917;50.818;6.972;2022-08-25T09:24:50;4.38;;;3.42;;
15635;SDS011;7917;50.818;6.972;2022-08-25T09:27:25;5.43;;;3.42;;
15635;SDS011;7917;50.818;6.972;2022-08-25T09:29:58;10.02;;;3.65;;
15635;SDS011;7917;50.818;6.972;2022-08-25T09:32:27;7.05;;;3.90;;
15635;SDS011;7917;50.818;6.972;2022-08-25T09:35:04;4.82;;;3.10;;
15635;SDS011;7917;50.818;6.972;2022-08-25T09:37:36;3.97;;;3.42;;
15635;SDS011;7917;50.818;6.972;2022-08-25T09:40:03;5.43;;;3.50;;
15635;SDS011;7917;50.818;6.972;2022-08-25T09:42:49;5.50;;;3.40;;
15635;SDS011;7917;50.818;6.972;2022-08-25T09:45:29;5.78;;;3.20;;
15635;SDS011;7917;50.818;6.972;2022-08-25T09:48:02;3.60;;;3.30;;
15635;SDS011;7917;50.818;6.972;2022-08-25T09:50:47;6.25;;;3.65;;
15635;SDS011;7917;50.818;6.972;2022-08-25T09:53:16;6.85;;;3.42;;
15635;SDS011;7917;50.818;6.972;2022-08-25T09:55:44;3.90;;;3.30;;
15635;SDS011;7917;50.818;6.972;2022-08-25T09:58:20;3.83;;;3.33;;
15635;SDS011;7917;50.818;6.972;2022-08-25T10:00:59;6.50;;;3.83;;
15635;SDS011;7917;50.818;6.972;2022-08-25T10:03:32;7.80;;;3.67;;
15635;SDS011;7917;50.818;6.972;2022-08-25T10:06:00;5.32;;;3.70;;
15635;SDS011;7917;50.818;6.972;2022-08-25T10:08:32;6.68;;;2.95;;
15635;SDS011;7917;50.818;6.972;2022-08-25T10:11:03;4.13;;;3.47;;
15635;SDS011;7917;50.818;6.972;2022-08-25T10:13:37;4.75;;;3.47;;
15635;SDS011;7917;50.818;6.972;2022-08-25T10:16:10;5.00;;;3.58;;
15635;SDS011;7917;50.818;6.972;2022-08-25T10:18:58;4.55;;;3.40;;
15635;SDS011;7917;50.818;6.972;2022-08-25T10:21:29;6.57;;;3.80;;
15635;SDS011;7917;50.818;6.972;2022-08-25T10:23:56;4.90;;;3.40;;
15635;SDS011;7917;50.818;6.972;2022-08-25T10:26:28;4.28;;;3.08;;
15635;SDS011;7917;50.818;6.972;2022-08-25T10:29:05;4.85;;;3.22;;
15635;SDS011;7917;50.818;6.972;2022-08-25T10:31:44;4.38;;;3.63;;
15635;SDS011;7917;50.818;6.972;2022-08-25T10:34:21;4.50;;;3.70;;
15635;SDS011;7917;50.818;6.972;2022-08-25T10:37:00;3.70;;;3.38;;
15635;SDS011;7917;50.818;6.972;2022-08-25T10:39:37;5.97;;;3.17;;
15635;SDS011;7917;50.818;6.972;2022-08-25T10:42:11;5.07;;;3.45;;
15635;SDS011;7917;50.818;6.972;2022-08-25T10:44:55;3.63;;;3.00;;
15635;SDS011;7917;50.818;6.972;2022-08-25T10:48:08;6.35;;;3.30;;
15635;SDS011;7917;50.818;6.972;2022-08-25T10:50:52;4.00;;;3.58;;
15635;SDS011;7917;50.818;6.972;2022-08-25T10:53:26;5.07;;;3.42;;
15635;SDS011;7917;50.818;6.972;2022-08-25T10:56:02;4.88;;;3.40;;
15635;SDS011;7917;50.818;6.972;2022-08-25T10:58:40;7.75;;;3.83;;
15635;SDS011;7917;50.818;6.972;2022-08-25T11:01:23;7.85;;;3.67;;
15635;SDS011;7917;50.818;6.972;2022-08-25T11:03:57;4.55;;;3.90;;
15635;SDS011;7917;50.818;6.972;2022-08-25T11:06:30;5.03;;;3.72;;
15635;SDS011;7917;50.818;6.972;2022-08-25T11:09:04;3.70;;;3.20;;
15635;SDS011;7917;50.818;6.972;2022-08-25T11:11:35;14.48;;;3.75;;
15635;SDS011;7917;50.818;6.972;2022-08-25T11:14:08;4.80;;;3.42;;
15635;SDS011;7917;50.818;6.972;2022-08-25T11:16:42;6.45;;;3.75;;
15635;SDS011;7917;50.818;6.972;2022-08-25T11:19:15;5.35;;;3.55;;
15635;SDS011;7917;50.818;6.972;2022-08-25T11:21:47;6.47;;;3.50;;
15635;SDS011;7917;50.818;6.972;2022-08-25T11:24:26;5.32;;;4.05;;
15635;SDS011;7917;50.818;6.972;2022-08-25T11:27:03;6.35;;;3.90;;
15635;SDS011;7917;50.818;6.972;2022-08-25T11:29:34;4.00;;;3.60;;
15635;SDS011;7917;50.818;6.972;2022-08-25T11:32:05;6.22;;;3.80;;
15635;SDS011;7917;50.818;6.972;2022-08-25T11:34:34;5.47;;;4.10;;
15635;SDS011;7917;50.818;6.972;2022-08-25T11:37:04;5.72;;;3.80;;
15635;SDS011;7917;50.818;6.972;2022-08-25T11:39:54;4.18;;;3.78;;
15635;SDS011;7917;50.818;6.972;2022-08-25T11:42:53;4.00;;;3.42;;
15635;SDS011;7917;50.818;6.972;2022-08-25T11:45:38;4.40;;;3.83;;
15635;SDS011;7917;50.818;6.972;2022-08-25T11:48:29;5.00;;;3.58;;
15635;SDS011;7917;50.818;6.972;2022-08-25T11:51:26;7.85;;;3.33;;
15635;SDS011;7917;50.818;6.972;2022-08-25T11:54:15;7.30;;;3.15;;
15635;SDS011;7917;50.818;6.972;2022-08-25T11:56:50;6.00;;;3.40;;
15635;SDS011;7917;50.818;6.972;2022-08-25T12:02:29;5.28;;;3.40;;
15635;SDS011;7917;50.818;6.972;2022-08-25T12:05:01;3.75;;;3.45;;
15635;SDS011;7917;50.818;6.972;2022-08-25T12:10:54;4.18;;;3.78;;
15635;SDS011;7917;50.818;6.972;2022-08-25T12:13:25;4.45;;;3.60;;
15635;SDS011;7917;50.818;6.972;2022-08-25T12:16:07;5.38;;;3.38;;
15635;SDS011;7917;50.818;6.972;2022-08-25T12:21:58;30.15;;;4.85;;
15635;SDS011;7917;50.818;6.972;2022-08-25T12:25:03;6.85;;;4.18;;
15635;SDS011;7917;50.818;6.972;2022-08-25T12:27:37;3.95;;;3.13;;
15635;SDS011;7917;50.818;6.972;2022-08-25T12:30:11;4.93;;;3.22;;
15635;SDS011;7917;50.818;6.972;2022-08-25T12:32:46;3.75;;;3.10;;
15635;SDS011;7917;50.818;6.972;2022-08-25T12:35:25;3.88;;;3.40;;
15635;SDS011;7917;50.818;6.972;2022-08-25T12:38:01;5.22;;;3.22;;
15635;SDS011;7917;50.818;6.972;2022-08-25T12:40:31;6.38;;;3.35;;
15635;SDS011;7917;50.818;6.972;2022-08-25T12:43:04;3.75;;;3.20;;
15635;SDS011;7917;50.818;6.972;2022-08-25T12:45:36;9.27;;;3.40;;
15635;SDS011;7917;50.818;6.972;2022-08-25T12:51:18;8.63;;;3.50;;
15635;SDS011;7917;50.818;6.972;2022-08-25T12:53:52;4.10;;;3.70;;
15635;SDS011;7917;50.818;6.972;2022-08-25T12:56:26;5.95;;;3.67;;
15635;SDS011;7917;50.818;6.972;2022-08-25T13:05:00;4.63;;;2.83;;
15635;SDS011;7917;50.818;6.972;2022-08-25T13:08:05;8.02;;;3.60;;
15635;SDS011;7917;50.818;6.972;2022-08-25T13:10:56;4.55;;;2.92;;
15635;SDS011;7917;50.818;6.972;2022-08-25T13:13:34;5.65;;;3.58;;
15635;SDS011;7917;50.818;6.972;2022-08-25T13:16:14;6.22;;;3.65;;
15635;SDS011;7917;50.818;6.972;2022-08-25T13:18:43;5.40;;;3.40;;
15635;SDS011;7917;50.818;6.972;2022-08-25T13:21:12;3.47;;;3.00;;
15635;SDS011;7917;50.818;6.972;2022-08-25T13:23:43;5.03;;;3.58;;
15635;SDS011;7917;50.818;6.972;2022-08-25T13:26:13;4.53;;;3.03;;
15635;SDS011;7917;50.818;6.972;2022-08-25T13:28:42;3.67;;;3.10;;
15635;SDS011;7917;50.818;6.972;2022-08-25T13:31:16;6.93;;;3.30;;
15635;SDS011;7917;50.818;6.972;2022-08-25T13:33:50;6.47;;;3.42;;
15635;SDS011;7917;50.818;6.972;2022-08-25T13:36:18;9.82;;;3.42;;
15635;SDS011;7917;50.818;6.972;2022-08-25T13:39:11;4.72;;;3.03;;
15635;SDS011;7917;50.818;6.972;2022-08-25T13:41:44;4.95;;;3.60;;
15635;SDS011;7917;50.818;6.972;2022-08-25T13:44:14;5.18;;;3.00;;
15635;SDS011;7917;50.818;6.972;2022-08-25T13:46:43;6.00;;;3.25;;
15635;SDS011;7917;50.818;6.972;2022-08-25T13:49:10;4.55;;;3.50;;
15635;SDS011;7917;50.818;6.972;2022-08-25T13:51:39;6.32;;;3.65;;
15635;SDS011;7917;50.818;6.972;2022-08-25T13:54:22;17.80;;;3.72;;
15635;SDS011;7917;50.818;6.972;2022-08-25T13:56:53;4.72;;;3.38;;
15635;SDS011;7917;50.818;6.972;2022-08-25T13:59:29;4.00;;;3.10;;
15635;SDS011;7917;50.818;6.972;2022-08-25T14:02:07;4.13;;;3.50;;
15635;SDS011;7917;50.818;6.972;2022-08-25T14:04:45;3.80;;;3.13;;
15635;SDS011;7917;50.818;6.972;2022-08-25T14:07:27;3.70;;;3.10;;
15635;SDS011;7917;50.818;6.972;2022-08-25T14:09:57;6.78;;;3.67;;
15635;SDS011;7917;50.818;6.972;2022-08-25T14:12:32;6.95;;;3.45;;
15635;SDS011;7917;50.818;6.972;2022-08-25T14:15:08;5.03;;;3.38;;
15635;SDS011;7917;50.818;6.972;2022-08-25T14:17:38;5.60;;;3.28;;
15635;SDS011;7917;50.818;6.972;2022-08-25T14:20:18;3.30;;;3.00;;
15635;SDS011;7917;50.818;6.972;2022-08-25T14:22:52;3.95;;;3.28;;
15635;SDS011;7917;50.818;6.972;2022-08-25T14:25:21;3.50;;;3.20;;
15635;SDS011;7917;50.818;6.972;2022-08-25T14:27:55;4.28;;;2.80;;
15635;SDS011;7917;50.818;6.972;2022-08-25T14:30:28;9.05;;;3.03;;
15635;SDS011;7917;50.818;6.972;2022-08-25T14:32:56;3.63;;;2.90;;
15635;SDS011;7917;50.818;6.972;2022-08-25T14:35:24;5.47;;;3.10;;
15635;SDS011;7917;50.818;6.972;2022-08-25T14:37:51;3.33;;;2.45;;
15635;SDS011;7917;50.818;6.972;2022-08-25T14:40:18;3.25;;;2.70;;
15635;SDS011;7917;50.818;6.972;2022-08-25T14:42:46;5.00;;;3.03;;
15635;SDS011;7917;50.818;6.972;2022-08-25T14:45:16;4.45;;;3.08;;
15635;SDS011;7917;50.818;6.972;2022-08-25T14:47:44;3.58;;;2.75;;
15635;SDS011;7917;50.818;6.972;2022-08-25T14:50:12;5.25;;;2.22;;
15635;SDS011;7917;50.818;6.972;2022-08-25T14:52:41;4.00;;;2.85;;
15635;SDS011;7917;50.818;6.972;2022-08-25T14:55:09;2.80;;;2.33;;
15635;SDS011;7917;50.818;6.972;2022-08-25T14:57:38;2.75;;;2.30;;
15635;SDS011;7917;50.818;6.972;2022-08-25T15:00:06;3.33;;;2.45;;
15635;SDS011;7917;50.818;6.972;2022-08-25T15:02:37;7.60;;;2.35;;
15635;SDS011;7917;50.818;6.972;2022-08-25T15:05:08;4.63;;;2.60;;
15635;SDS011;7917;50.818;6.972;2022-08-25T15:07:37;8.48;;;2.78;;
15635;SDS011;7917;50.818;6.972;2022-08-25T15:10:22;3.75;;;2.58;;
15635;SDS011;7917;50.818;6.972;2022-08-25T15:12:49;3.58;;;2.83;;
15635;SDS011;7917;50.818;6.972;2022-08-25T15:15:19;2.95;;;2.65;;
15635;SDS011;7917;50.818;6.972;2022-08-25T15:17:51;2.88;;;2.53;;
15635;SDS011;7917;50.818;6.972;2022-08-25T15:20:19;4.45;;;2.55;;
15635;SDS011;7917;50.818;6.972;2022-08-25T15:22:48;5.93;;;2.60;;
15635;SDS011;7917;50.818;6.972;2022-08-25T15:25:15;3.88;;;2.85;;
15635;SDS011;7917;50.818;6.972;2022-08-25T15:27:43;5.32;;;2.60;;
15635;SDS011;7917;50.818;6.972;2022-08-25T15:30:11;3.08;;;2.67;;
15635;SDS011;7917;50.818;6.972;2022-08-25T15:32:41;4.50;;;2.75;;
15635;SDS011;7917;50.818;6.972;2022-08-25T15:35:12;3.15;;;2.65;;
15635;SDS011;7917;50.818;6.972;2022-08-25T15:37:39;3.25;;;2.50;;
15635;SDS011;7917;50.818;6.972;2022-08-25T15:40:07;3.53;;;2.80;;
15635;SDS011;7917;50.818;6.972;2022-08-25T15:42:35;3.08;;;2.78;;
15635;SDS011;7917;50.818;6.972;2022-08-25T15:45:03;5.63;;;2.92;;